sensor_id;sensor_type;location;lat;lon;timestamp;P1;durP1;ratioP1;P2;durP2;ratioP2
25015;SDS011;13029;46.286;7.488;2023-02-22T00:01:15;4.07;;;2.05;;
25015;SDS011;13029;46.286;7.488;2023-02-22T00:03:52;4.53;;;2.50;;
25015;SDS011;13029;46.286;7.488;2023-02-22T00:06:18;5.55;;;2.40;;
25015;SDS011;13029;46.286;7.488;2023-02-22T00:08:46;2.83;;;2.10;;
25015;SDS011;13029;46.286;7.488;2023-02-22T00:11:12;3.53;;;1.88;;
25015;SDS011;13029;46.286;7.488;2023-02-22T00:13:38;6.75;;;2.00;;
25015;SDS011;13029;46.286;7.488;2023-02-22T00:16:04;3.92;;;1.88;;
25015;SDS011;13029;46.286;7.488;2023-02-22T00:18:30;6.03;;;2.47;;
25015;SDS011;13029;46.286;7.488;2023-02-22T00:20:55;3.97;;;2.10;;
25015;SDS011;13029;46.286;7.488;2023-02-22T00:23:25;3.92;;;2.25;;
25015;SDS011;13029;46.286;7.488;2023-02-22T00:25:52;4.88;;;1.88;;
25015;SDS011;13029;46.286;7.488;2023-02-22T00:28:18;4.82;;;2.10;;
25015;SDS011;13029;46.286;7.488;2023-02-22T00:30:43;4.78;;;2.35;;
25015;SDS011;13029;46.286;7.488;2023-02-22T00:33:10;4.55;;;2.28;;
25015;SDS011;13029;46.286;7.488;2023-02-22T00:35:36;3.90;;;1.77;;
25015;SDS011;13029;46.286;7.488;2023-02-22T00:38:02;5.75;;;1.60;;
25015;SDS011;13029;46.286;7.488;2023-02-22T00:40:29;3.17;;;1.80;;
25015;SDS011;13029;46.286;7.488;2023-02-22T00:42:57;2.63;;;1.55;;
25015;SDS011;13029;46.286;7.488;2023-02-22T00:45:23;2.95;;;1.70;;
25015;SDS011;13029;46.286;7.488;2023-02-22T00:47:50;4.43;;;1.48;;
25015;SDS011;13029;46.286;7.488;2023-02-22T00:50:17;3.15;;;1.38;;
25015;SDS011;13029;46.286;7.488;2023-02-22T00:52:43;3.95;;;1.52;;
25015;SDS011;13029;46.286;7.488;2023-02-22T00:55:09;4.05;;;1.52;;
25015;SDS011;13029;46.286;7.488;2023-02-22T01:00:05;2.30;;;1.20;;
25015;SDS011;13029;46.286;7.488;2023-02-22T01:02:40;3.15;;;1.33;;
25015;SDS011;13029;46.286;7.488;2023-02-22T01:05:06;2.13;;;1.40;;
25015;SDS011;13029;46.286;7.488;2023-02-22T01:07:33;2.40;;;1.33;;
25015;SDS011;13029;46.286;7.488;2023-02-22T01:09:58;3.00;;;1.20;;
25015;SDS011;13029;46.286;7.488;2023-02-22T01:12:25;1.55;;;1.00;;
25015;SDS011;13029;46.286;7.488;2023-02-22T01:14:51;2.55;;;1.30;;
25015;SDS011;13029;46.286;7.488;2023-02-22T01:17:16;1.15;;;0.98;;
25015;SDS011;13029;46.286;7.488;2023-02-22T01:19:41;1.70;;;0.90;;
25015;SDS011;13029;46.286;7.488;2023-02-22T01:22:07;4.70;;;1.20;;
25015;SDS011;13029;46.286;7.488;2023-02-22T01:24:33;1.98;;;1.73;;
25015;SDS011;13029;46.286;7.488;2023-02-22T01:26:58;2.03;;;1.20;;
25015;SDS011;13029;46.286;7.488;2023-02-22T01:29:24;1.90;;;0.98;;
25015;SDS011;13029;46.286;7.488;2023-02-22T01:31:53;4.32;;;1.30;;
25015;SDS011;13029;46.286;7.488;2023-02-22T01:34:19;1.90;;;1.17;;
25015;SDS011;13029;46.286;7.488;2023-02-22T01:36:45;4.55;;;1.02;;
25015;SDS011;13029;46.286;7.488;2023-02-22T01:39:11;2.58;;;1.02;;
25015;SDS011;13029;46.286;7.488;2023-02-22T01:41:36;2.15;;;1.08;;
25015;SDS011;13029;46.286;7.488;2023-02-22T01:47:02;5.88;;;1.20;;
25015;SDS011;13029;46.286;7.488;2023-02-22T01:49:34;2.38;;;1.00;;
25015;SDS011;13029;46.286;7.488;2023-02-22T01:52:20;1.67;;;1.17;;
25015;SDS011;13029;46.286;7.488;2023-02-22T01:54:48;2.25;;;0.90;;
25015;SDS011;13029;46.286;7.488;2023-02-22T01:57:19;2.03;;;1.33;;
25015;SDS011;13029;46.286;7.488;2023-02-22T01:59:56;1.23;;;0.70;;
25015;SDS011;13029;46.286;7.488;2023-02-22T02:02:23;1.00;;;0.80;;
25015;SDS011;13029;46.286;7.488;2023-02-22T02:04:50;1.27;;;0.93;;
25015;SDS011;13029;46.286;7.488;2023-02-22T02:07:17;1.23;;;1.10;;
25015;SDS011;13029;46.286;7.488;2023-02-22T02:12:19;2.67;;;1.27;;
25015;SDS011;13029;46.286;7.488;2023-02-22T02:14:47;2.35;;;1.40;;
25015;SDS011;13029;46.286;7.488;2023-02-22T02:17:14;3.03;;;1.40;;
25015;SDS011;13029;46.286;7.488;2023-02-22T02:22:18;2.67;;;1.23;;
25015;SDS011;13029;46.286;7.488;2023-02-22T02:27:52;3.22;;;1.05;;
25015;SDS011;13029;46.286;7.488;2023-02-22T02:30:42;2.67;;;1.10;;
25015;SDS011;13029;46.286;7.488;2023-02-22T02:33:22;2.03;;;0.90;;
25015;SDS011;13029;46.286;7.488;2023-02-22T02:36:01;3.33;;;0.90;;
25015;SDS011;13029;46.286;7.488;2023-02-22T02:38:40;2.03;;;0.95;;
25015;SDS011;13029;46.286;7.488;2023-02-22T02:41:12;3.20;;;1.10;;
25015;SDS011;13029;46.286;7.488;2023-02-22T02:46:14;1.70;;;1.20;;
25015;SDS011;13029;46.286;7.488;2023-02-22T02:48:52;1.38;;;1.00;;
25015;SDS011;13029;46.286;7.488;2023-02-22T02:51:20;3.13;;;0.90;;
25015;SDS011;13029;46.286;7.488;2023-02-22T02:53:47;1.52;;;0.93;;
25015;SDS011;13029;46.286;7.488;2023-02-22T02:56:13;1.00;;;0.70;;
25015;SDS011;13029;46.286;7.488;2023-02-22T02:58:48;1.75;;;1.20;;
25015;SDS011;13029;46.286;7.488;2023-02-22T03:01:32;2.65;;;0.68;;
25015;SDS011;13029;46.286;7.488;2023-02-22T03:06:49;3.42;;;0.90;;
25015;SDS011;13029;46.286;7.488;2023-02-22T03:12:13;1.45;;;0.73;;
25015;SDS011;13029;46.286;7.488;2023-02-22T03:14:47;2.20;;;0.95;;
25015;SDS011;13029;46.286;7.488;2023-02-22T03:23:09;1.50;;;0.82;;
25015;SDS011;13029;46.286;7.488;2023-02-22T03:25:39;1.52;;;0.80;;
25015;SDS011;13029;46.286;7.488;2023-02-22T03:28:14;1.90;;;1.02;;
25015;SDS011;13029;46.286;7.488;2023-02-22T03:30:53;1.23;;;0.90;;
25015;SDS011;13029;46.286;7.488;2023-02-22T03:33:24;2.35;;;0.98;;
25015;SDS011;13029;46.286;7.488;2023-02-22T03:38:53;2.30;;;0.98;;
25015;SDS011;13029;46.286;7.488;2023-02-22T03:41:20;1.20;;;0.93;;
25015;SDS011;13029;46.286;7.488;2023-02-22T03:43:51;0.82;;;0.80;;
25015;SDS011;13029;46.286;7.488;2023-02-22T03:46:19;1.48;;;0.90;;
25015;SDS011;13029;46.286;7.488;2023-02-22T03:51:57;1.52;;;0.93;;
25015;SDS011;13029;46.286;7.488;2023-02-22T03:54:22;1.50;;;1.00;;
25015;SDS011;13029;46.286;7.488;2023-02-22T03:56:49;2.03;;;0.93;;
25015;SDS011;13029;46.286;7.488;2023-02-22T03:59:17;2.08;;;0.75;;
25015;SDS011;13029;46.286;7.488;2023-02-22T04:01:43;2.80;;;0.98;;
25015;SDS011;13029;46.286;7.488;2023-02-22T04:04:09;5.30;;;1.30;;
25015;SDS011;13029;46.286;7.488;2023-02-22T04:06:34;2.70;;;1.08;;
25015;SDS011;13029;46.286;7.488;2023-02-22T04:08:59;1.27;;;0.77;;
25015;SDS011;13029;46.286;7.488;2023-02-22T04:11:24;1.75;;;1.00;;
25015;SDS011;13029;46.286;7.488;2023-02-22T04:13:50;1.05;;;0.90;;
25015;SDS011;13029;46.286;7.488;2023-02-22T04:16:15;1.30;;;0.90;;
25015;SDS011;13029;46.286;7.488;2023-02-22T04:18:40;5.03;;;1.00;;
25015;SDS011;13029;46.286;7.488;2023-02-22T04:21:06;2.55;;;1.38;;
25015;SDS011;13029;46.286;7.488;2023-02-22T04:23:33;4.38;;;1.50;;
25015;SDS011;13029;46.286;7.488;2023-02-22T04:25:58;1.85;;;0.82;;
25015;SDS011;13029;46.286;7.488;2023-02-22T04:28:23;3.20;;;1.02;;
25015;SDS011;13029;46.286;7.488;2023-02-22T04:30:48;1.13;;;0.80;;
25015;SDS011;13029;46.286;7.488;2023-02-22T04:33:14;1.05;;;0.73;;
25015;SDS011;13029;46.286;7.488;2023-02-22T04:35:40;2.03;;;1.00;;
25015;SDS011;13029;46.286;7.488;2023-02-22T04:38:05;1.02;;;0.80;;
25015;SDS011;13029;46.286;7.488;2023-02-22T04:40:33;1.30;;;0.65;;
25015;SDS011;13029;46.286;7.488;2023-02-22T04:42:58;0.98;;;0.70;;
25015;SDS011;13029;46.286;7.488;2023-02-22T04:45:24;2.42;;;0.73;;
25015;SDS011;13029;46.286;7.488;2023-02-22T04:47:49;1.33;;;1.05;;
25015;SDS011;13029;46.286;7.488;2023-02-22T04:50:14;1.83;;;0.70;;
25015;SDS011;13029;46.286;7.488;2023-02-22T04:52:40;4.30;;;1.10;;
25015;SDS011;13029;46.286;7.488;2023-02-22T04:55:05;2.17;;;0.93;;
25015;SDS011;13029;46.286;7.488;2023-02-22T04:57:31;1.23;;;0.95;;
25015;SDS011;13029;46.286;7.488;2023-02-22T04:59:56;3.28;;;0.68;;
25015;SDS011;13029;46.286;7.488;2023-02-22T05:02:22;1.25;;;0.70;;
25015;SDS011;13029;46.286;7.488;2023-02-22T05:04:47;3.00;;;0.88;;
25015;SDS011;13029;46.286;7.488;2023-02-22T05:07:12;1.00;;;0.90;;
25015;SDS011;13029;46.286;7.488;2023-02-22T05:09:38;1.38;;;0.80;;
25015;SDS011;13029;46.286;7.488;2023-02-22T05:12:03;5.47;;;0.77;;
25015;SDS011;13029;46.286;7.488;2023-02-22T05:14:28;1.75;;;0.75;;
25015;SDS011;13029;46.286;7.488;2023-02-22T05:16:54;2.10;;;0.95;;
25015;SDS011;13029;46.286;7.488;2023-02-22T05:19:20;0.88;;;0.70;;
25015;SDS011;13029;46.286;7.488;2023-02-22T05:21:46;4.20;;;0.70;;
25015;SDS011;13029;46.286;7.488;2023-02-22T05:24:11;3.67;;;0.90;;
25015;SDS011;13029;46.286;7.488;2023-02-22T05:26:36;2.22;;;0.65;;
25015;SDS011;13029;46.286;7.488;2023-02-22T05:29:02;1.50;;;0.90;;
25015;SDS011;13029;46.286;7.488;2023-02-22T05:31:27;1.45;;;0.82;;
25015;SDS011;13029;46.286;7.488;2023-02-22T05:33:52;1.13;;;0.80;;
25015;SDS011;13029;46.286;7.488;2023-02-22T05:36:18;1.98;;;1.02;;
25015;SDS011;13029;46.286;7.488;2023-02-22T05:38:43;1.17;;;0.68;;
25015;SDS011;13029;46.286;7.488;2023-02-22T05:41:09;2.47;;;0.75;;
25015;SDS011;13029;46.286;7.488;2023-02-22T05:43:35;3.10;;;0.85;;
25015;SDS011;13029;46.286;7.488;2023-02-22T05:46:01;1.80;;;0.65;;
25015;SDS011;13029;46.286;7.488;2023-02-22T05:48:27;1.95;;;0.70;;
25015;SDS011;13029;46.286;7.488;2023-02-22T05:50:52;3.83;;;0.70;;
25015;SDS011;13029;46.286;7.488;2023-02-22T05:53:17;2.17;;;0.63;;
25015;SDS011;13029;46.286;7.488;2023-02-22T05:55:43;2.53;;;0.80;;
25015;SDS011;13029;46.286;7.488;2023-02-22T05:58:08;1.08;;;0.70;;
25015;SDS011;13029;46.286;7.488;2023-02-22T06:00:33;3.00;;;1.10;;
25015;SDS011;13029;46.286;7.488;2023-02-22T06:02:59;1.85;;;0.85;;
25015;SDS011;13029;46.286;7.488;2023-02-22T06:05:27;2.72;;;0.90;;
25015;SDS011;13029;46.286;7.488;2023-02-22T06:07:53;1.63;;;0.93;;
25015;SDS011;13029;46.286;7.488;2023-02-22T06:10:18;1.73;;;1.00;;
25015;SDS011;13029;46.286;7.488;2023-02-22T06:12:44;1.25;;;0.80;;
25015;SDS011;13029;46.286;7.488;2023-02-22T06:15:10;1.02;;;0.85;;
25015;SDS011;13029;46.286;7.488;2023-02-22T06:17:36;2.30;;;1.10;;
25015;SDS011;13029;46.286;7.488;2023-02-22T06:20:03;2.33;;;0.85;;
25015;SDS011;13029;46.286;7.488;2023-02-22T06:22:28;2.10;;;0.93;;
25015;SDS011;13029;46.286;7.488;2023-02-22T06:24:54;1.10;;;1.00;;
25015;SDS011;13029;46.286;7.488;2023-02-22T06:27:19;4.40;;;0.90;;
25015;SDS011;13029;46.286;7.488;2023-02-22T06:29:45;2.42;;;0.82;;
25015;SDS011;13029;46.286;7.488;2023-02-22T06:32:10;1.05;;;0.70;;
25015;SDS011;13029;46.286;7.488;2023-02-22T06:34:36;1.38;;;0.73;;
25015;SDS011;13029;46.286;7.488;2023-02-22T06:37:01;1.05;;;0.70;;
25015;SDS011;13029;46.286;7.488;2023-02-22T06:39:26;1.75;;;0.82;;
25015;SDS011;13029;46.286;7.488;2023-02-22T06:41:52;3.05;;;0.82;;
25015;SDS011;13029;46.286;7.488;2023-02-22T06:44:19;2.42;;;0.80;;
25015;SDS011;13029;46.286;7.488;2023-02-22T06:46:47;1.50;;;0.85;;
25015;SDS011;13029;46.286;7.488;2023-02-22T06:49:17;2.03;;;0.63;;
25015;SDS011;13029;46.286;7.488;2023-02-22T06:51:43;5.15;;;1.15;;
25015;SDS011;13029;46.286;7.488;2023-02-22T06:54:09;1.65;;;1.13;;
25015;SDS011;13029;46.286;7.488;2023-02-22T06:56:34;4.10;;;0.93;;
25015;SDS011;13029;46.286;7.488;2023-02-22T06:58:59;1.95;;;1.00;;
25015;SDS011;13029;46.286;7.488;2023-02-22T07:01:28;2.33;;;1.05;;
25015;SDS011;13029;46.286;7.488;2023-02-22T07:03:54;1.40;;;0.95;;
25015;SDS011;13029;46.286;7.488;2023-02-22T07:06:19;1.38;;;0.80;;
25015;SDS011;13029;46.286;7.488;2023-02-22T07:08:44;2.05;;;0.77;;
25015;SDS011;13029;46.286;7.488;2023-02-22T07:11:09;3.33;;;0.90;;
25015;SDS011;13029;46.286;7.488;2023-02-22T07:13:35;1.70;;;1.10;;
25015;SDS011;13029;46.286;7.488;2023-02-22T07:16:00;3.67;;;1.00;;
25015;SDS011;13029;46.286;7.488;2023-02-22T07:18:25;3.88;;;1.30;;
25015;SDS011;13029;46.286;7.488;2023-02-22T07:20:51;0.75;;;0.60;;
25015;SDS011;13029;46.286;7.488;2023-02-22T07:23:17;1.02;;;0.73;;
25015;SDS011;13029;46.286;7.488;2023-02-22T07:25:42;1.30;;;0.80;;
25015;SDS011;13029;46.286;7.488;2023-02-22T07:28:08;1.45;;;0.77;;
25015;SDS011;13029;46.286;7.488;2023-02-22T07:30:35;3.40;;;1.02;;
25015;SDS011;13029;46.286;7.488;2023-02-22T07:33:01;1.30;;;1.13;;
25015;SDS011;13029;46.286;7.488;2023-02-22T07:35:32;1.15;;;0.70;;
25015;SDS011;13029;46.286;7.488;2023-02-22T07:38:00;3.97;;;0.80;;
25015;SDS011;13029;46.286;7.488;2023-02-22T07:40:26;1.65;;;0.70;;
25015;SDS011;13029;46.286;7.488;2023-02-22T07:45:38;1.00;;;0.60;;
25015;SDS011;13029;46.286;7.488;2023-02-22T07:48:04;1.55;;;0.70;;
25015;SDS011;13029;46.286;7.488;2023-02-22T07:50:30;2.05;;;0.70;;
25015;SDS011;13029;46.286;7.488;2023-02-22T07:52:56;1.27;;;0.68;;
25015;SDS011;13029;46.286;7.488;2023-02-22T07:55:24;1.13;;;0.77;;
25015;SDS011;13029;46.286;7.488;2023-02-22T07:57:52;1.92;;;0.50;;
25015;SDS011;13029;46.286;7.488;2023-02-22T08:02:49;0.63;;;0.60;;
25015;SDS011;13029;46.286;7.488;2023-02-22T08:05:14;1.17;;;0.80;;
25015;SDS011;13029;46.286;7.488;2023-02-22T08:07:40;1.77;;;0.70;;
25015;SDS011;13029;46.286;7.488;2023-02-22T08:10:05;4.78;;;1.58;;
25015;SDS011;13029;46.286;7.488;2023-02-22T08:12:32;0.95;;;0.60;;
25015;SDS011;13029;46.286;7.488;2023-02-22T08:14:58;1.45;;;0.77;;
25015;SDS011;13029;46.286;7.488;2023-02-22T08:17:23;4.10;;;0.82;;
25015;SDS011;13029;46.286;7.488;2023-02-22T08:19:49;4.85;;;0.88;;
25015;SDS011;13029;46.286;7.488;2023-02-22T08:22:14;1.10;;;0.90;;
25015;SDS011;13029;46.286;7.488;2023-02-22T08:24:39;2.92;;;0.80;;
25015;SDS011;13029;46.286;7.488;2023-02-22T08:27:05;2.20;;;0.73;;
25015;SDS011;13029;46.286;7.488;2023-02-22T08:29:30;1.00;;;0.70;;
25015;SDS011;13029;46.286;7.488;2023-02-22T08:31:58;0.80;;;0.70;;
25015;SDS011;13029;46.286;7.488;2023-02-22T08:34:23;1.13;;;0.70;;
25015;SDS011;13029;46.286;7.488;2023-02-22T08:36:49;1.00;;;0.70;;
25015;SDS011;13029;46.286;7.488;2023-02-22T08:39:14;1.88;;;0.90;;
25015;SDS011;13029;46.286;7.488;2023-02-22T08:41:39;1.00;;;0.70;;
25015;SDS011;13029;46.286;7.488;2023-02-22T08:44:05;0.75;;;0.60;;
25015;SDS011;13029;46.286;7.488;2023-02-22T08:46:30;2.85;;;1.15;;
25015;SDS011;13029;46.286;7.488;2023-02-22T08:48:55;1.58;;;0.70;;
25015;SDS011;13029;46.286;7.488;2023-02-22T08:51:20;3.25;;;1.15;;
25015;SDS011;13029;46.286;7.488;2023-02-22T08:53:46;3.55;;;0.85;;
25015;SDS011;13029;46.286;7.488;2023-02-22T08:56:11;2.67;;;0.88;;
25015;SDS011;13029;46.286;7.488;2023-02-22T08:58:37;1.77;;;0.90;;
25015;SDS011;13029;46.286;7.488;2023-02-22T09:01:02;1.80;;;0.90;;
25015;SDS011;13029;46.286;7.488;2023-02-22T09:03:27;1.95;;;0.77;;
25015;SDS011;13029;46.286;7.488;2023-02-22T09:05:53;2.47;;;0.93;;
25015;SDS011;13029;46.286;7.488;2023-02-22T09:08:18;2.20;;;1.10;;
25015;SDS011;13029;46.286;7.488;2023-02-22T09:10:44;6.00;;;1.25;;
25015;SDS011;13029;46.286;7.488;2023-02-22T09:13:09;2.75;;;1.20;;
25015;SDS011;13029;46.286;7.488;2023-02-22T09:15:35;1.95;;;1.20;;
25015;SDS011;13029;46.286;7.488;2023-02-22T09:18:00;4.93;;;1.50;;
25015;SDS011;13029;46.286;7.488;2023-02-22T09:20:26;4.28;;;1.33;;
25015;SDS011;13029;46.286;7.488;2023-02-22T09:22:52;2.90;;;1.45;;
25015;SDS011;13029;46.286;7.488;2023-02-22T09:25:18;3.25;;;1.42;;
25015;SDS011;13029;46.286;7.488;2023-02-22T09:27:47;6.57;;;1.30;;
25015;SDS011;13029;46.286;7.488;2023-02-22T09:30:17;8.32;;;1.42;;
25015;SDS011;13029;46.286;7.488;2023-02-22T09:32:54;1.85;;;0.85;;
25015;SDS011;13029;46.286;7.488;2023-02-22T09:35:20;4.23;;;1.27;;
25015;SDS011;13029;46.286;7.488;2023-02-22T09:37:50;7.68;;;1.05;;
25015;SDS011;13029;46.286;7.488;2023-02-22T09:40:16;4.45;;;1.13;;
25015;SDS011;13029;46.286;7.488;2023-02-22T09:42:51;5.40;;;1.58;;
25015;SDS011;13029;46.286;7.488;2023-02-22T09:45:22;7.53;;;2.50;;
25015;SDS011;13029;46.286;7.488;2023-02-22T09:47:53;5.40;;;2.13;;
25015;SDS011;13029;46.286;7.488;2023-02-22T09:50:22;4.40;;;1.70;;
25015;SDS011;13029;46.286;7.488;2023-02-22T09:53:03;1.35;;;0.90;;
25015;SDS011;13029;46.286;7.488;2023-02-22T09:55:32;1.75;;;1.00;;
25015;SDS011;13029;46.286;7.488;2023-02-22T09:58:20;1.25;;;0.80;;
25015;SDS011;13029;46.286;7.488;2023-02-22T10:00:59;4.88;;;1.13;;
25015;SDS011;13029;46.286;7.488;2023-02-22T10:03:35;2.55;;;1.00;;
25015;SDS011;13029;46.286;7.488;2023-02-22T10:06:25;4.78;;;0.93;;
25015;SDS011;13029;46.286;7.488;2023-02-22T10:08:51;5.65;;;1.55;;
25015;SDS011;13029;46.286;7.488;2023-02-22T10:16:49;1.83;;;0.90;;
25015;SDS011;13029;46.286;7.488;2023-02-22T10:22:37;4.68;;;1.20;;
25015;SDS011;13029;46.286;7.488;2023-02-22T10:27:47;4.43;;;1.42;;
25015;SDS011;13029;46.286;7.488;2023-02-22T10:32:45;4.88;;;1.50;;
25015;SDS011;13029;46.286;7.488;2023-02-22T10:35:20;7.00;;;2.67;;
25015;SDS011;13029;46.286;7.488;2023-02-22T10:37:47;8.85;;;2.30;;
25015;SDS011;13029;46.286;7.488;2023-02-22T10:40:18;7.32;;;2.13;;
25015;SDS011;13029;46.286;7.488;2023-02-22T10:42:47;7.97;;;2.40;;
25015;SDS011;13029;46.286;7.488;2023-02-22T10:45:17;6.85;;;2.30;;
25015;SDS011;13029;46.286;7.488;2023-02-22T10:47:45;5.25;;;1.90;;
25015;SDS011;13029;46.286;7.488;2023-02-22T10:50:11;4.50;;;1.52;;
25015;SDS011;13029;46.286;7.488;2023-02-22T10:52:38;4.53;;;1.70;;
25015;SDS011;13029;46.286;7.488;2023-02-22T10:55:04;6.78;;;2.10;;
25015;SDS011;13029;46.286;7.488;2023-02-22T10:57:36;6.88;;;1.90;;
25015;SDS011;13029;46.286;7.488;2023-02-22T11:00:15;4.32;;;1.80;;
25015;SDS011;13029;46.286;7.488;2023-02-22T11:05:46;9.70;;;3.13;;
25015;SDS011;13029;46.286;7.488;2023-02-22T11:08:17;4.68;;;2.30;;
25015;SDS011;13029;46.286;7.488;2023-02-22T11:10:55;9.20;;;2.10;;
25015;SDS011;13029;46.286;7.488;2023-02-22T11:15:59;6.57;;;2.03;;
25015;SDS011;13029;46.286;7.488;2023-02-22T11:18:28;4.35;;;1.83;;
25015;SDS011;13029;46.286;7.488;2023-02-22T11:21:00;8.73;;;2.55;;
25015;SDS011;13029;46.286;7.488;2023-02-22T11:23:29;6.10;;;2.45;;
25015;SDS011;13029;46.286;7.488;2023-02-22T11:26:00;5.97;;;1.92;;
25015;SDS011;13029;46.286;7.488;2023-02-22T11:28:29;4.82;;;1.83;;
25015;SDS011;13029;46.286;7.488;2023-02-22T11:30:57;4.97;;;2.20;;
25015;SDS011;13029;46.286;7.488;2023-02-22T11:33:33;7.57;;;2.17;;
25015;SDS011;13029;46.286;7.488;2023-02-22T11:35:59;7.97;;;2.45;;
25015;SDS011;13029;46.286;7.488;2023-02-22T11:38:35;5.93;;;1.90;;
25015;SDS011;13029;46.286;7.488;2023-02-22T11:43:47;7.28;;;2.15;;
25015;SDS011;13029;46.286;7.488;2023-02-22T11:46:20;3.40;;;1.90;;
25015;SDS011;13029;46.286;7.488;2023-02-22T11:48:55;4.63;;;2.28;;
25015;SDS011;13029;46.286;7.488;2023-02-22T11:54:10;4.65;;;2.47;;
25015;SDS011;13029;46.286;7.488;2023-02-22T11:56:58;3.67;;;1.98;;
25015;SDS011;13029;46.286;7.488;2023-02-22T12:11:13;5.50;;;3.00;;
25015;SDS011;13029;46.286;7.488;2023-02-22T12:13:48;4.72;;;2.53;;
25015;SDS011;13029;46.286;7.488;2023-02-22T12:19:26;6.72;;;2.67;;
25015;SDS011;13029;46.286;7.488;2023-02-22T12:21:59;4.20;;;3.05;;
25015;SDS011;13029;46.286;7.488;2023-02-22T12:24:29;5.25;;;2.85;;
25015;SDS011;13029;46.286;7.488;2023-02-22T12:27:09;5.97;;;3.22;;
25015;SDS011;13029;46.286;7.488;2023-02-22T12:29:45;4.10;;;3.10;;
25015;SDS011;13029;46.286;7.488;2023-02-22T12:32:33;8.40;;;2.88;;
25015;SDS011;13029;46.286;7.488;2023-02-22T12:43:13;8.30;;;2.72;;
25015;SDS011;13029;46.286;7.488;2023-02-22T12:45:44;6.68;;;3.70;;
25015;SDS011;13029;46.286;7.488;2023-02-22T12:56:31;7.77;;;2.70;;
25015;SDS011;13029;46.286;7.488;2023-02-22T13:01:49;8.95;;;3.63;;
25015;SDS011;13029;46.286;7.488;2023-02-22T13:04:18;4.90;;;3.33;;
25015;SDS011;13029;46.286;7.488;2023-02-22T13:09:44;16.20;;;4.80;;
25015;SDS011;13029;46.286;7.488;2023-02-22T13:15:32;8.18;;;4.63;;
25015;SDS011;13029;46.286;7.488;2023-02-22T13:18:11;11.00;;;4.88;;
25015;SDS011;13029;46.286;7.488;2023-02-22T13:23:25;10.75;;;5.53;;
25015;SDS011;13029;46.286;7.488;2023-02-22T13:28:34;15.10;;;5.82;;
25015;SDS011;13029;46.286;7.488;2023-02-22T13:33:45;10.27;;;5.82;;
25015;SDS011;13029;46.286;7.488;2023-02-22T13:36:24;14.68;;;6.00;;
25015;SDS011;13029;46.286;7.488;2023-02-22T13:39:05;11.70;;;6.50;;
25015;SDS011;13029;46.286;7.488;2023-02-22T13:47:46;13.45;;;7.15;;
25015;SDS011;13029;46.286;7.488;2023-02-22T13:52:59;15.35;;;8.30;;
25015;SDS011;13029;46.286;7.488;2023-02-22T13:55:29;18.05;;;8.75;;
25015;SDS011;13029;46.286;7.488;2023-02-22T13:58:14;14.85;;;8.20;;
25015;SDS011;13029;46.286;7.488;2023-02-22T14:00:41;14.50;;;9.13;;
25015;SDS011;13029;46.286;7.488;2023-02-22T14:08:05;19.38;;;10.25;;
25015;SDS011;13029;46.286;7.488;2023-02-22T14:13:10;19.25;;;10.65;;
25015;SDS011;13029;46.286;7.488;2023-02-22T14:15:35;17.85;;;10.90;;
25015;SDS011;13029;46.286;7.488;2023-02-22T14:21:08;17.40;;;10.35;;
25015;SDS011;13029;46.286;7.488;2023-02-22T14:23:35;16.88;;;11.43;;
25015;SDS011;13029;46.286;7.488;2023-02-22T14:26:11;19.08;;;10.70;;
25015;SDS011;13029;46.286;7.488;2023-02-22T14:39:18;19.00;;;11.32;;
25015;SDS011;13029;46.286;7.488;2023-02-22T14:44:54;19.20;;;11.52;;
25015;SDS011;13029;46.286;7.488;2023-02-22T14:47:21;19.77;;;11.60;;
25015;SDS011;13029;46.286;7.488;2023-02-22T14:49:52;15.98;;;11.10;;
25015;SDS011;13029;46.286;7.488;2023-02-22T14:52:22;20.83;;;12.20;;
25015;SDS011;13029;46.286;7.488;2023-02-22T14:54:58;20.10;;;12.88;;
25015;SDS011;13029;46.286;7.488;2023-02-22T14:57:50;21.33;;;12.95;;
25015;SDS011;13029;46.286;7.488;2023-02-22T15:00:20;22.52;;;13.68;;
25015;SDS011;13029;46.286;7.488;2023-02-22T15:02:57;32.15;;;14.00;;
25015;SDS011;13029;46.286;7.488;2023-02-22T15:05:24;22.77;;;13.35;;
25015;SDS011;13029;46.286;7.488;2023-02-22T15:07:55;22.50;;;13.43;;
25015;SDS011;13029;46.286;7.488;2023-02-22T15:10:29;23.95;;;13.15;;
25015;SDS011;13029;46.286;7.488;2023-02-22T15:13:04;24.92;;;12.95;;
25015;SDS011;13029;46.286;7.488;2023-02-22T15:15:42;21.10;;;13.63;;
25015;SDS011;13029;46.286;7.488;2023-02-22T15:18:16;22.50;;;12.68;;
25015;SDS011;13029;46.286;7.488;2023-02-22T15:20:45;21.33;;;13.80;;
25015;SDS011;13029;46.286;7.488;2023-02-22T15:23:13;27.73;;;14.13;;
25015;SDS011;13029;46.286;7.488;2023-02-22T15:25:39;22.95;;;13.80;;
25015;SDS011;13029;46.286;7.488;2023-02-22T15:28:12;20.00;;;13.30;;
25015;SDS011;13029;46.286;7.488;2023-02-22T15:30:38;21.00;;;12.85;;
25015;SDS011;13029;46.286;7.488;2023-02-22T15:33:10;19.95;;;13.32;;
25015;SDS011;13029;46.286;7.488;2023-02-22T15:35:37;28.23;;;13.32;;
25015;SDS011;13029;46.286;7.488;2023-02-22T15:40:36;21.00;;;13.02;;
25015;SDS011;13029;46.286;7.488;2023-02-22T15:43:07;20.35;;;12.95;;
25015;SDS011;13029;46.286;7.488;2023-02-22T15:45:41;24.77;;;13.90;;
25015;SDS011;13029;46.286;7.488;2023-02-22T15:48:10;21.60;;;13.55;;
25015;SDS011;13029;46.286;7.488;2023-02-22T15:50:35;19.30;;;12.43;;
25015;SDS011;13029;46.286;7.488;2023-02-22T15:55:44;19.27;;;12.57;;
25015;SDS011;13029;46.286;7.488;2023-02-22T16:00:39;19.03;;;12.57;;
25015;SDS011;13029;46.286;7.488;2023-02-22T16:03:08;22.00;;;12.50;;
25015;SDS011;13029;46.286;7.488;2023-02-22T16:05:39;21.25;;;12.93;;
25015;SDS011;13029;46.286;7.488;2023-02-22T16:08:12;21.25;;;13.38;;
25015;SDS011;13029;46.286;7.488;2023-02-22T16:10:40;22.75;;;12.50;;
25015;SDS011;13029;46.286;7.488;2023-02-22T16:13:21;19.17;;;12.27;;
25015;SDS011;13029;46.286;7.488;2023-02-22T16:15:52;19.25;;;12.70;;
25015;SDS011;13029;46.286;7.488;2023-02-22T16:18:22;20.25;;;11.88;;
25015;SDS011;13029;46.286;7.488;2023-02-22T16:20:59;18.17;;;11.05;;
25015;SDS011;13029;46.286;7.488;2023-02-22T16:23:27;14.90;;;8.45;;
25015;SDS011;13029;46.286;7.488;2023-02-22T16:26:14;15.40;;;9.50;;
25015;SDS011;13029;46.286;7.488;2023-02-22T16:31:22;18.80;;;11.77;;
25015;SDS011;13029;46.286;7.488;2023-02-22T16:36:17;18.30;;;10.35;;
25015;SDS011;13029;46.286;7.488;2023-02-22T16:38:43;17.70;;;10.65;;
25015;SDS011;13029;46.286;7.488;2023-02-22T16:41:12;14.55;;;9.70;;
25015;SDS011;13029;46.286;7.488;2023-02-22T16:43:39;21.80;;;10.30;;
25015;SDS011;13029;46.286;7.488;2023-02-22T16:46:09;15.55;;;9.05;;
25015;SDS011;13029;46.286;7.488;2023-02-22T16:48:34;15.98;;;8.43;;
25015;SDS011;13029;46.286;7.488;2023-02-22T16:51:09;16.40;;;8.95;;
25015;SDS011;13029;46.286;7.488;2023-02-22T16:53:42;12.50;;;8.73;;
25015;SDS011;13029;46.286;7.488;2023-02-22T16:56:08;18.63;;;8.82;;
25015;SDS011;13029;46.286;7.488;2023-02-22T16:58:37;16.85;;;8.40;;
25015;SDS011;13029;46.286;7.488;2023-02-22T17:01:03;15.63;;;9.73;;
25015;SDS011;13029;46.286;7.488;2023-02-22T17:03:29;13.70;;;8.80;;
25015;SDS011;13029;46.286;7.488;2023-02-22T17:05:54;13.45;;;7.75;;
25015;SDS011;13029;46.286;7.488;2023-02-22T17:08:19;15.45;;;7.65;;
25015;SDS011;13029;46.286;7.488;2023-02-22T17:10:45;17.33;;;9.07;;
25015;SDS011;13029;46.286;7.488;2023-02-22T17:13:10;16.13;;;9.85;;
25015;SDS011;13029;46.286;7.488;2023-02-22T17:15:36;14.43;;;8.63;;
25015;SDS011;13029;46.286;7.488;2023-02-22T17:18:03;16.27;;;9.27;;
25015;SDS011;13029;46.286;7.488;2023-02-22T17:20:35;17.77;;;8.73;;
25015;SDS011;13029;46.286;7.488;2023-02-22T17:23:03;19.02;;;9.13;;
25015;SDS011;13029;46.286;7.488;2023-02-22T17:25:42;22.73;;;9.85;;
25015;SDS011;13029;46.286;7.488;2023-02-22T17:28:08;15.38;;;9.13;;
25015;SDS011;13029;46.286;7.488;2023-02-22T17:30:34;16.92;;;10.10;;